sensor_id;sensor_type;location;lat;lon;timestamp;P1;durP1;ratioP1;P2;durP2;ratioP2
2039;SDS011;1025;42.686;23.350;2022-09-09T00:01:25;4.60;;;4.37;;
2039;SDS011;1025;42.686;23.350;2022-09-09T00:03:57;4.23;;;3.93;;
2039;SDS011;1025;42.686;23.350;2022-09-09T00:06:24;5.50;;;5.10;;
2039;SDS011;1025;42.686;23.350;2022-09-09T00:08:56;5.60;;;5.20;;
2039;SDS011;1025;42.686;23.350;2022-09-09T00:11:26;4.53;;;4.30;;
2039;SDS011;1025;42.686;23.350;2022-09-09T00:13:54;4.70;;;4.43;;
2039;SDS011;1025;42.686;23.350;2022-09-09T00:16:24;4.87;;;4.67;;
2039;SDS011;1025;42.686;23.350;2022-09-09T00:18:53;5.73;;;5.43;;
2039;SDS011;1025;42.686;23.350;2022-09-09T00:21:22;5.63;;;5.33;;
2039;SDS011;1025;42.686;23.350;2022-09-09T00:23:51;5.50;;;4.97;;
2039;SDS011;1025;42.686;23.350;2022-09-09T00:26:20;5.43;;;5.00;;
2039;SDS011;1025;42.686;23.350;2022-09-09T00:28:50;6.77;;;6.00;;
2039;SDS011;1025;42.686;23.350;2022-09-09T00:31:20;4.60;;;4.33;;
2039;SDS011;1025;42.686;23.350;2022-09-09T00:33:47;5.43;;;5.03;;
2039;SDS011;1025;42.686;23.350;2022-09-09T00:36:16;5.27;;;4.97;;
2039;SDS011;1025;42.686;23.350;2022-09-09T00:38:47;5.43;;;5.03;;
2039;SDS011;1025;42.686;23.350;2022-09-09T00:41:18;5.70;;;5.37;;
2039;SDS011;1025;42.686;23.350;2022-09-09T00:43:49;4.30;;;4.10;;
2039;SDS011;1025;42.686;23.350;2022-09-09T00:46:24;5.03;;;4.80;;
2039;SDS011;1025;42.686;23.350;2022-09-09T00:48:54;5.67;;;5.27;;
2039;SDS011;1025;42.686;23.350;2022-09-09T00:51:25;4.93;;;4.63;;
2039;SDS011;1025;42.686;23.350;2022-09-09T00:54:01;6.77;;;6.27;;
2039;SDS011;1025;42.686;23.350;2022-09-09T00:56:35;6.10;;;5.47;;
2039;SDS011;1025;42.686;23.350;2022-09-09T00:59:10;4.40;;;4.20;;
2039;SDS011;1025;42.686;23.350;2022-09-09T01:01:38;6.10;;;5.67;;
2039;SDS011;1025;42.686;23.350;2022-09-09T01:04:04;5.17;;;4.87;;
2039;SDS011;1025;42.686;23.350;2022-09-09T01:06:34;5.50;;;5.20;;
2039;SDS011;1025;42.686;23.350;2022-09-09T01:09:08;6.37;;;5.73;;
2039;SDS011;1025;42.686;23.350;2022-09-09T01:11:40;6.10;;;5.70;;
2039;SDS011;1025;42.686;23.350;2022-09-09T01:14:11;5.87;;;5.47;;
2039;SDS011;1025;42.686;23.350;2022-09-09T01:16:40;6.07;;;5.70;;
2039;SDS011;1025;42.686;23.350;2022-09-09T01:19:07;5.50;;;5.20;;
2039;SDS011;1025;42.686;23.350;2022-09-09T01:21:39;8.10;;;6.67;;
2039;SDS011;1025;42.686;23.350;2022-09-09T01:24:18;6.30;;;6.00;;
2039;SDS011;1025;42.686;23.350;2022-09-09T01:26:46;5.63;;;5.30;;
2039;SDS011;1025;42.686;23.350;2022-09-09T01:29:16;6.27;;;5.87;;
2039;SDS011;1025;42.686;23.350;2022-09-09T01:31:51;6.90;;;6.30;;
2039;SDS011;1025;42.686;23.350;2022-09-09T01:34:18;6.37;;;5.90;;
2039;SDS011;1025;42.686;23.350;2022-09-09T01:36:45;5.50;;;5.17;;
2039;SDS011;1025;42.686;23.350;2022-09-09T01:39:15;5.40;;;5.10;;
2039;SDS011;1025;42.686;23.350;2022-09-09T01:41:42;4.93;;;4.73;;
2039;SDS011;1025;42.686;23.350;2022-09-09T01:44:10;7.63;;;6.03;;
2039;SDS011;1025;42.686;23.350;2022-09-09T01:46:37;5.60;;;5.20;;
2039;SDS011;1025;42.686;23.350;2022-09-09T01:49:05;6.40;;;6.00;;
2039;SDS011;1025;42.686;23.350;2022-09-09T01:51:33;16.07;;;6.13;;
2039;SDS011;1025;42.686;23.350;2022-09-09T01:53:59;7.53;;;6.83;;
2039;SDS011;1025;42.686;23.350;2022-09-09T01:56:30;6.83;;;6.40;;
2039;SDS011;1025;42.686;23.350;2022-09-09T01:59:07;6.70;;;6.20;;
2039;SDS011;1025;42.686;23.350;2022-09-09T02:01:41;6.50;;;6.10;;
2039;SDS011;1025;42.686;23.350;2022-09-09T02:04:12;6.33;;;5.83;;
2039;SDS011;1025;42.686;23.350;2022-09-09T02:06:44;5.67;;;5.30;;
2039;SDS011;1025;42.686;23.350;2022-09-09T02:09:12;7.20;;;6.80;;
2039;SDS011;1025;42.686;23.350;2022-09-09T02:11:39;7.40;;;6.90;;
2039;SDS011;1025;42.686;23.350;2022-09-09T02:14:07;11.77;;;6.87;;
2039;SDS011;1025;42.686;23.350;2022-09-09T02:16:36;6.27;;;5.77;;
2039;SDS011;1025;42.686;23.350;2022-09-09T02:19:08;6.17;;;5.60;;
2039;SDS011;1025;42.686;23.350;2022-09-09T02:21:37;4.73;;;4.53;;
2039;SDS011;1025;42.686;23.350;2022-09-09T02:24:05;6.00;;;5.50;;
2039;SDS011;1025;42.686;23.350;2022-09-09T02:26:35;5.63;;;5.23;;
2039;SDS011;1025;42.686;23.350;2022-09-09T02:29:05;6.30;;;6.00;;
2039;SDS011;1025;42.686;23.350;2022-09-09T02:31:34;5.83;;;5.53;;
2039;SDS011;1025;42.686;23.350;2022-09-09T02:34:01;5.57;;;5.20;;
2039;SDS011;1025;42.686;23.350;2022-09-09T02:36:31;6.50;;;6.10;;
2039;SDS011;1025;42.686;23.350;2022-09-09T02:38:59;6.43;;;6.03;;
2039;SDS011;1025;42.686;23.350;2022-09-09T02:41:28;5.30;;;4.83;;
2039;SDS011;1025;42.686;23.350;2022-09-09T02:43:55;6.30;;;5.87;;
2039;SDS011;1025;42.686;23.350;2022-09-09T02:46:27;6.17;;;5.83;;
2039;SDS011;1025;42.686;23.350;2022-09-09T02:48:59;5.73;;;5.43;;
2039;SDS011;1025;42.686;23.350;2022-09-09T02:51:28;7.03;;;6.43;;
2039;SDS011;1025;42.686;23.350;2022-09-09T02:53:59;6.70;;;6.30;;
2039;SDS011;1025;42.686;23.350;2022-09-09T02:56:29;7.00;;;6.60;;
2039;SDS011;1025;42.686;23.350;2022-09-09T02:58:57;6.77;;;6.17;;
2039;SDS011;1025;42.686;23.350;2022-09-09T03:01:24;5.80;;;5.33;;
2039;SDS011;1025;42.686;23.350;2022-09-09T03:03:51;5.87;;;5.50;;
2039;SDS011;1025;42.686;23.350;2022-09-09T03:06:17;6.50;;;6.00;;
2039;SDS011;1025;42.686;23.350;2022-09-09T03:08:44;6.23;;;5.83;;
2039;SDS011;1025;42.686;23.350;2022-09-09T03:11:12;5.13;;;4.90;;
2039;SDS011;1025;42.686;23.350;2022-09-09T03:13:39;7.73;;;7.03;;
2039;SDS011;1025;42.686;23.350;2022-09-09T03:16:05;6.60;;;6.20;;
2039;SDS011;1025;42.686;23.350;2022-09-09T03:18:32;6.30;;;5.97;;
2039;SDS011;1025;42.686;23.350;2022-09-09T03:20:59;8.43;;;7.63;;
2039;SDS011;1025;42.686;23.350;2022-09-09T03:23:26;6.47;;;6.07;;
2039;SDS011;1025;42.686;23.350;2022-09-09T03:25:53;8.10;;;7.30;;
2039;SDS011;1025;42.686;23.350;2022-09-09T03:28:23;7.97;;;7.37;;
2039;SDS011;1025;42.686;23.350;2022-09-09T03:30:57;7.07;;;6.60;;
2039;SDS011;1025;42.686;23.350;2022-09-09T03:33:24;6.53;;;6.10;;
2039;SDS011;1025;42.686;23.350;2022-09-09T03:35:50;7.57;;;7.07;;
2039;SDS011;1025;42.686;23.350;2022-09-09T03:38:17;6.03;;;5.47;;
2039;SDS011;1025;42.686;23.350;2022-09-09T03:40:48;6.77;;;6.37;;
2039;SDS011;1025;42.686;23.350;2022-09-09T03:43:15;7.73;;;7.13;;
2039;SDS011;1025;42.686;23.350;2022-09-09T03:45:46;6.93;;;6.43;;
2039;SDS011;1025;42.686;23.350;2022-09-09T03:48:13;7.90;;;7.30;;
2039;SDS011;1025;42.686;23.350;2022-09-09T03:50:43;6.87;;;6.47;;
2039;SDS011;1025;42.686;23.350;2022-09-09T03:53:10;7.20;;;6.60;;
2039;SDS011;1025;42.686;23.350;2022-09-09T03:55:36;6.43;;;6.00;;
2039;SDS011;1025;42.686;23.350;2022-09-09T03:58:03;8.33;;;7.73;;
2039;SDS011;1025;42.686;23.350;2022-09-09T04:00:29;7.27;;;6.77;;
2039;SDS011;1025;42.686;23.350;2022-09-09T04:02:58;8.37;;;7.77;;
2039;SDS011;1025;42.686;23.350;2022-09-09T04:05:25;7.73;;;7.27;;
2039;SDS011;1025;42.686;23.350;2022-09-09T04:07:52;8.07;;;7.40;;
2039;SDS011;1025;42.686;23.350;2022-09-09T04:10:19;8.63;;;8.03;;
2039;SDS011;1025;42.686;23.350;2022-09-09T04:12:46;7.63;;;7.13;;
2039;SDS011;1025;42.686;23.350;2022-09-09T04:15:12;6.87;;;6.47;;
2039;SDS011;1025;42.686;23.350;2022-09-09T04:17:39;8.27;;;7.77;;
2039;SDS011;1025;42.686;23.350;2022-09-09T04:20:07;9.57;;;8.43;;
2039;SDS011;1025;42.686;23.350;2022-09-09T04:22:36;9.63;;;8.70;;
2039;SDS011;1025;42.686;23.350;2022-09-09T04:25:04;8.40;;;7.80;;
2039;SDS011;1025;42.686;23.350;2022-09-09T04:27:30;9.50;;;8.83;;
2039;SDS011;1025;42.686;23.350;2022-09-09T04:29:57;8.03;;;7.40;;
2039;SDS011;1025;42.686;23.350;2022-09-09T04:32:24;8.20;;;7.60;;
2039;SDS011;1025;42.686;23.350;2022-09-09T04:34:52;7.93;;;7.47;;
2039;SDS011;1025;42.686;23.350;2022-09-09T04:37:20;9.00;;;8.40;;
2039;SDS011;1025;42.686;23.350;2022-09-09T04:39:46;6.63;;;6.33;;
2039;SDS011;1025;42.686;23.350;2022-09-09T04:42:13;9.67;;;7.70;;
2039;SDS011;1025;42.686;23.350;2022-09-09T04:44:39;7.00;;;6.60;;
2039;SDS011;1025;42.686;23.350;2022-09-09T04:47:06;8.37;;;7.47;;
2039;SDS011;1025;42.686;23.350;2022-09-09T04:49:32;6.73;;;6.23;;
2039;SDS011;1025;42.686;23.350;2022-09-09T04:51:59;6.80;;;6.40;;
2039;SDS011;1025;42.686;23.350;2022-09-09T04:54:27;11.03;;;6.07;;
2039;SDS011;1025;42.686;23.350;2022-09-09T04:56:54;7.20;;;6.70;;
2039;SDS011;1025;42.686;23.350;2022-09-09T04:59:21;7.33;;;6.80;;
2039;SDS011;1025;42.686;23.350;2022-09-09T05:01:48;6.43;;;5.87;;
2039;SDS011;1025;42.686;23.350;2022-09-09T05:04:15;7.63;;;7.03;;
2039;SDS011;1025;42.686;23.350;2022-09-09T05:06:41;7.30;;;6.77;;
2039;SDS011;1025;42.686;23.350;2022-09-09T05:09:08;6.23;;;5.87;;
2039;SDS011;1025;42.686;23.350;2022-09-09T05:11:36;6.33;;;5.93;;
2039;SDS011;1025;42.686;23.350;2022-09-09T05:14:03;6.07;;;5.67;;
2039;SDS011;1025;42.686;23.350;2022-09-09T05:16:30;5.47;;;5.07;;
2039;SDS011;1025;42.686;23.350;2022-09-09T05:18:56;7.00;;;6.50;;
2039;SDS011;1025;42.686;23.350;2022-09-09T05:21:24;6.27;;;5.97;;
2039;SDS011;1025;42.686;23.350;2022-09-09T05:23:53;5.90;;;5.60;;
2039;SDS011;1025;42.686;23.350;2022-09-09T05:26:20;7.10;;;6.60;;
2039;SDS011;1025;42.686;23.350;2022-09-09T05:28:49;5.80;;;5.43;;
2039;SDS011;1025;42.686;23.350;2022-09-09T05:31:16;6.67;;;5.90;;
2039;SDS011;1025;42.686;23.350;2022-09-09T05:33:43;6.30;;;5.90;;
2039;SDS011;1025;42.686;23.350;2022-09-09T05:36:11;6.77;;;6.37;;
2039;SDS011;1025;42.686;23.350;2022-09-09T05:38:39;6.97;;;6.30;;
2039;SDS011;1025;42.686;23.350;2022-09-09T05:41:06;7.33;;;6.83;;
2039;SDS011;1025;42.686;23.350;2022-09-09T05:43:33;7.60;;;6.70;;
2039;SDS011;1025;42.686;23.350;2022-09-09T05:46:02;6.70;;;6.10;;
2039;SDS011;1025;42.686;23.350;2022-09-09T05:48:29;5.83;;;5.63;;
2039;SDS011;1025;42.686;23.350;2022-09-09T05:50:57;6.73;;;6.33;;
2039;SDS011;1025;42.686;23.350;2022-09-09T05:53:23;6.03;;;5.43;;
2039;SDS011;1025;42.686;23.350;2022-09-09T05:55:50;5.90;;;5.60;;
2039;SDS011;1025;42.686;23.350;2022-09-09T05:58:17;5.40;;;5.00;;
2039;SDS011;1025;42.686;23.350;2022-09-09T06:00:44;7.67;;;7.17;;
2039;SDS011;1025;42.686;23.350;2022-09-09T06:03:12;4.67;;;4.37;;
2039;SDS011;1025;42.686;23.350;2022-09-09T06:05:38;5.53;;;5.10;;
2039;SDS011;1025;42.686;23.350;2022-09-09T06:08:05;4.27;;;3.97;;
2039;SDS011;1025;42.686;23.350;2022-09-09T06:10:32;3.00;;;2.83;;
2039;SDS011;1025;42.686;23.350;2022-09-09T06:12:59;3.77;;;3.57;;
2039;SDS011;1025;42.686;23.350;2022-09-09T06:15:25;3.00;;;2.80;;
2039;SDS011;1025;42.686;23.350;2022-09-09T06:17:54;6.83;;;4.10;;
2039;SDS011;1025;42.686;23.350;2022-09-09T06:20:22;3.53;;;3.27;;
2039;SDS011;1025;42.686;23.350;2022-09-09T06:22:49;2.80;;;2.67;;
2039;SDS011;1025;42.686;23.350;2022-09-09T06:25:16;2.83;;;2.73;;
2039;SDS011;1025;42.686;23.350;2022-09-09T06:27:44;7.90;;;4.83;;
2039;SDS011;1025;42.686;23.350;2022-09-09T06:30:14;3.93;;;3.83;;
2039;SDS011;1025;42.686;23.350;2022-09-09T06:32:42;4.47;;;4.17;;
2039;SDS011;1025;42.686;23.350;2022-09-09T06:35:08;2.90;;;2.70;;
2039;SDS011;1025;42.686;23.350;2022-09-09T06:37:37;4.23;;;4.03;;
2039;SDS011;1025;42.686;23.350;2022-09-09T06:40:04;3.53;;;3.33;;
2039;SDS011;1025;42.686;23.350;2022-09-09T06:42:31;2.67;;;2.57;;
2039;SDS011;1025;42.686;23.350;2022-09-09T06:44:57;6.67;;;3.10;;
2039;SDS011;1025;42.686;23.350;2022-09-09T06:47:24;1.90;;;1.80;;
2039;SDS011;1025;42.686;23.350;2022-09-09T06:49:52;3.30;;;3.10;;
2039;SDS011;1025;42.686;23.350;2022-09-09T06:52:18;2.97;;;2.77;;
2039;SDS011;1025;42.686;23.350;2022-09-09T06:54:46;3.23;;;3.13;;
2039;SDS011;1025;42.686;23.350;2022-09-09T06:57:13;3.70;;;2.97;;
2039;SDS011;1025;42.686;23.350;2022-09-09T06:59:39;2.57;;;2.43;;
2039;SDS011;1025;42.686;23.350;2022-09-09T07:02:07;2.70;;;2.50;;
2039;SDS011;1025;42.686;23.350;2022-09-09T07:04:34;3.80;;;3.50;;
2039;SDS011;1025;42.686;23.350;2022-09-09T07:07:02;3.47;;;3.23;;
2039;SDS011;1025;42.686;23.350;2022-09-09T07:09:28;3.40;;;3.20;;
2039;SDS011;1025;42.686;23.350;2022-09-09T07:11:57;2.40;;;2.30;;
2039;SDS011;1025;42.686;23.350;2022-09-09T07:14:24;3.23;;;3.07;;
2039;SDS011;1025;42.686;23.350;2022-09-09T07:16:51;3.97;;;3.23;;
2039;SDS011;1025;42.686;23.350;2022-09-09T07:19:18;4.20;;;4.00;;
2039;SDS011;1025;42.686;23.350;2022-09-09T07:21:44;3.10;;;2.90;;
2039;SDS011;1025;42.686;23.350;2022-09-09T07:24:11;2.67;;;2.57;;
2039;SDS011;1025;42.686;23.350;2022-09-09T07:26:38;3.37;;;3.17;;
2039;SDS011;1025;42.686;23.350;2022-09-09T07:29:06;3.33;;;2.40;;
2039;SDS011;1025;42.686;23.350;2022-09-09T07:31:33;2.50;;;2.40;;
2039;SDS011;1025;42.686;23.350;2022-09-09T07:34:01;3.30;;;2.83;;
2039;SDS011;1025;42.686;23.350;2022-09-09T07:36:29;2.53;;;2.43;;
2039;SDS011;1025;42.686;23.350;2022-09-09T07:38:56;2.27;;;2.17;;
2039;SDS011;1025;42.686;23.350;2022-09-09T07:41:24;2.50;;;2.40;;
2039;SDS011;1025;42.686;23.350;2022-09-09T07:43:50;5.30;;;4.27;;
2039;SDS011;1025;42.686;23.350;2022-09-09T07:46:21;3.07;;;2.87;;
2039;SDS011;1025;42.686;23.350;2022-09-09T07:48:48;2.53;;;2.27;;
2039;SDS011;1025;42.686;23.350;2022-09-09T07:51:17;3.17;;;2.97;;
2039;SDS011;1025;42.686;23.350;2022-09-09T07:53:44;3.07;;;2.87;;
2039;SDS011;1025;42.686;23.350;2022-09-09T07:56:11;3.57;;;3.23;;
2039;SDS011;1025;42.686;23.350;2022-09-09T07:58:38;3.13;;;3.03;;
2039;SDS011;1025;42.686;23.350;2022-09-09T08:01:06;2.33;;;2.23;;
2039;SDS011;1025;42.686;23.350;2022-09-09T08:03:34;3.10;;;2.10;;
2039;SDS011;1025;42.686;23.350;2022-09-09T08:06:01;3.00;;;2.90;;
2039;SDS011;1025;42.686;23.350;2022-09-09T08:08:28;2.17;;;2.00;;
2039;SDS011;1025;42.686;23.350;2022-09-09T08:11:00;2.90;;;2.80;;
2039;SDS011;1025;42.686;23.350;2022-09-09T08:13:27;2.70;;;2.60;;
2039;SDS011;1025;42.686;23.350;2022-09-09T08:15:54;3.30;;;3.07;;
2039;SDS011;1025;42.686;23.350;2022-09-09T08:18:20;3.77;;;2.77;;
2039;SDS011;1025;42.686;23.350;2022-09-09T08:20:49;3.90;;;3.60;;
2039;SDS011;1025;42.686;23.350;2022-09-09T08:23:16;3.67;;;3.43;;
2039;SDS011;1025;42.686;23.350;2022-09-09T08:25:43;4.60;;;4.20;;
2039;SDS011;1025;42.686;23.350;2022-09-09T08:28:10;3.00;;;2.57;;
2039;SDS011;1025;42.686;23.350;2022-09-09T08:30:37;3.40;;;3.13;;
2039;SDS011;1025;42.686;23.350;2022-09-09T08:33:04;3.03;;;2.90;;
2039;SDS011;1025;42.686;23.350;2022-09-09T08:35:30;8.50;;;3.80;;
2039;SDS011;1025;42.686;23.350;2022-09-09T08:37:59;2.53;;;2.33;;
2039;SDS011;1025;42.686;23.350;2022-09-09T08:40:26;2.90;;;2.70;;
2039;SDS011;1025;42.686;23.350;2022-09-09T08:42:55;3.23;;;2.93;;
2039;SDS011;1025;42.686;23.350;2022-09-09T08:45:25;6.80;;;2.53;;
2039;SDS011;1025;42.686;23.350;2022-09-09T08:48:11;3.37;;;3.07;;
2039;SDS011;1025;42.686;23.350;2022-09-09T08:50:40;2.83;;;2.73;;
2039;SDS011;1025;42.686;23.350;2022-09-09T08:53:11;2.73;;;2.63;;
2039;SDS011;1025;42.686;23.350;2022-09-09T08:55:42;3.63;;;3.50;;
2039;SDS011;1025;42.686;23.350;2022-09-09T08:58:11;3.30;;;3.10;;
2039;SDS011;1025;42.686;23.350;2022-09-09T09:00:41;3.73;;;3.40;;
2039;SDS011;1025;42.686;23.350;2022-09-09T09:03:12;1.80;;;1.70;;
2039;SDS011;1025;42.686;23.350;2022-09-09T09:05:44;4.60;;;3.07;;
2039;SDS011;1025;42.686;23.350;2022-09-09T09:08:16;2.53;;;2.37;;
2039;SDS011;1025;42.686;23.350;2022-09-09T09:10:46;2.37;;;2.27;;
2039;SDS011;1025;42.686;23.350;2022-09-09T09:13:14;3.73;;;3.53;;
2039;SDS011;1025;42.686;23.350;2022-09-09T09:15:42;2.20;;;2.10;;
2039;SDS011;1025;42.686;23.350;2022-09-09T09:18:10;4.90;;;4.50;;
2039;SDS011;1025;42.686;23.350;2022-09-09T09:20:40;3.53;;;3.33;;
2039;SDS011;1025;42.686;23.350;2022-09-09T09:23:09;4.67;;;4.33;;
2039;SDS011;1025;42.686;23.350;2022-09-09T09:25:42;3.47;;;3.27;;
2039;SDS011;1025;42.686;23.350;2022-09-09T09:28:10;6.03;;;3.90;;
2039;SDS011;1025;42.686;23.350;2022-09-09T09:30:42;3.60;;;3.40;;
2039;SDS011;1025;42.686;23.350;2022-09-09T09:33:11;3.70;;;3.50;;
2039;SDS011;1025;42.686;23.350;2022-09-09T09:35:40;2.93;;;2.83;;
2039;SDS011;1025;42.686;23.350;2022-09-09T09:38:10;2.97;;;2.77;;
2039;SDS011;1025;42.686;23.350;2022-09-09T09:40:49;5.33;;;3.63;;
2039;SDS011;1025;42.686;23.350;2022-09-09T09:43:18;2.60;;;2.40;;
2039;SDS011;1025;42.686;23.350;2022-09-09T09:45:46;3.43;;;3.23;;
2039;SDS011;1025;42.686;23.350;2022-09-09T09:48:13;2.60;;;2.50;;
2039;SDS011;1025;42.686;23.350;2022-09-09T09:50:46;2.53;;;2.43;;
2039;SDS011;1025;42.686;23.350;2022-09-09T09:53:17;2.53;;;2.43;;
2039;SDS011;1025;42.686;23.350;2022-09-09T09:55:46;2.60;;;2.50;;
2039;SDS011;1025;42.686;23.350;2022-09-09T09:58:16;2.87;;;2.70;;
2039;SDS011;1025;42.686;23.350;2022-09-09T10:00:47;2.90;;;2.70;;
2039;SDS011;1025;42.686;23.350;2022-09-09T10:03:19;3.53;;;3.33;;
2039;SDS011;1025;42.686;23.350;2022-09-09T10:05:47;3.90;;;3.63;;
2039;SDS011;1025;42.686;23.350;2022-09-09T10:08:14;1.90;;;1.80;;
2039;SDS011;1025;42.686;23.350;2022-09-09T10:10:52;3.80;;;3.57;;
2039;SDS011;1025;42.686;23.350;2022-09-09T10:13:25;3.37;;;3.07;;
2039;SDS011;1025;42.686;23.350;2022-09-09T10:15:56;4.00;;;3.80;;
2039;SDS011;1025;42.686;23.350;2022-09-09T10:18:33;3.10;;;2.47;;
2039;SDS011;1025;42.686;23.350;2022-09-09T10:21:03;2.80;;;2.60;;
2039;SDS011;1025;42.686;23.350;2022-09-09T10:23:36;2.90;;;2.80;;
2039;SDS011;1025;42.686;23.350;2022-09-09T10:29:01;9.33;;;3.97;;
2039;SDS011;1025;42.686;23.350;2022-09-09T10:31:31;3.80;;;3.60;;
2039;SDS011;1025;42.686;23.350;2022-09-09T10:34:01;4.10;;;3.80;;
2039;SDS011;1025;42.686;23.350;2022-09-09T10:36:29;4.27;;;3.97;;
2039;SDS011;1025;42.686;23.350;2022-09-09T10:38:57;6.50;;;5.90;;
2039;SDS011;1025;42.686;23.350;2022-09-09T10:41:31;5.73;;;5.33;;
2039;SDS011;1025;42.686;23.350;2022-09-09T10:44:23;3.43;;;3.23;;
2039;SDS011;1025;42.686;23.350;2022-09-09T10:46:56;4.90;;;4.60;;
2039;SDS011;1025;42.686;23.350;2022-09-09T10:49:29;4.60;;;4.40;;
2039;SDS011;1025;42.686;23.350;2022-09-09T10:52:00;3.90;;;3.70;;
2039;SDS011;1025;42.686;23.350;2022-09-09T10:54:31;4.03;;;3.83;;
2039;SDS011;1025;42.686;23.350;2022-09-09T10:57:02;3.93;;;3.40;;
2039;SDS011;1025;42.686;23.350;2022-09-09T10:59:33;3.60;;;3.50;;
2039;SDS011;1025;42.686;23.350;2022-09-09T11:02:01;4.17;;;3.90;;
2039;SDS011;1025;42.686;23.350;2022-09-09T11:04:29;7.70;;;6.63;;
2039;SDS011;1025;42.686;23.350;2022-09-09T11:06:59;3.77;;;3.57;;
2039;SDS011;1025;42.686;23.350;2022-09-09T11:09:31;3.97;;;3.67;;
2039;SDS011;1025;42.686;23.350;2022-09-09T11:11:59;5.33;;;4.93;;
2039;SDS011;1025;42.686;23.350;2022-09-09T11:14:28;5.30;;;4.53;;
2039;SDS011;1025;42.686;23.350;2022-09-09T11:16:58;9.77;;;5.00;;
2039;SDS011;1025;42.686;23.350;2022-09-09T11:19:27;14.77;;;4.47;;
2039;SDS011;1025;42.686;23.350;2022-09-09T11:21:55;4.53;;;4.33;;
2039;SDS011;1025;42.686;23.350;2022-09-09T11:24:23;5.60;;;5.20;;
2039;SDS011;1025;42.686;23.350;2022-09-09T11:26:51;4.10;;;3.70;;
2039;SDS011;1025;42.686;23.350;2022-09-09T11:29:23;7.00;;;4.47;;
2039;SDS011;1025;42.686;23.350;2022-09-09T11:31:56;3.03;;;2.93;;
2039;SDS011;1025;42.686;23.350;2022-09-09T11:34:31;4.97;;;4.67;;
2039;SDS011;1025;42.686;23.350;2022-09-09T11:37:12;4.70;;;4.30;;
2039;SDS011;1025;42.686;23.350;2022-09-09T11:39:46;4.30;;;3.90;;
2039;SDS011;1025;42.686;23.350;2022-09-09T11:42:17;5.60;;;5.30;;
2039;SDS011;1025;42.686;23.350;2022-09-09T11:44:45;5.33;;;4.87;;
2039;SDS011;1025;42.686;23.350;2022-09-09T11:47:22;7.33;;;4.50;;
2039;SDS011;1025;42.686;23.350;2022-09-09T11:49:51;5.20;;;4.47;;
2039;SDS011;1025;42.686;23.350;2022-09-09T11:52:20;3.83;;;3.53;;
2039;SDS011;1025;42.686;23.350;2022-09-09T11:54:48;3.47;;;3.33;;
2039;SDS011;1025;42.686;23.350;2022-09-09T11:57:21;4.47;;;4.07;;
2039;SDS011;1025;42.686;23.350;2022-09-09T11:59:50;4.83;;;4.27;;
2039;SDS011;1025;42.686;23.350;2022-09-09T12:02:18;4.37;;;4.07;;
2039;SDS011;1025;42.686;23.350;2022-09-09T12:04:49;6.10;;;3.80;;
2039;SDS011;1025;42.686;23.350;2022-09-09T12:07:31;4.50;;;4.10;;
2039;SDS011;1025;42.686;23.350;2022-09-09T12:10:01;5.00;;;4.60;;
2039;SDS011;1025;42.686;23.350;2022-09-09T12:12:29;5.27;;;4.60;;
2039;SDS011;1025;42.686;23.350;2022-09-09T12:14:58;9.77;;;4.37;;
2039;SDS011;1025;42.686;23.350;2022-09-09T12:17:26;3.23;;;3.03;;
2039;SDS011;1025;42.686;23.350;2022-09-09T12:19:59;4.90;;;4.50;;
2039;SDS011;1025;42.686;23.350;2022-09-09T12:22:32;4.57;;;4.17;;
2039;SDS011;1025;42.686;23.350;2022-09-09T12:25:05;8.33;;;3.93;;
2039;SDS011;1025;42.686;23.350;2022-09-09T12:27:40;3.90;;;3.17;;
2039;SDS011;1025;42.686;23.350;2022-09-09T12:30:11;4.53;;;3.90;;
2039;SDS011;1025;42.686;23.350;2022-09-09T12:32:38;5.10;;;4.70;;
2039;SDS011;1025;42.686;23.350;2022-09-09T12:35:09;4.70;;;4.50;;
2039;SDS011;1025;42.686;23.350;2022-09-09T12:37:39;5.77;;;5.37;;
2039;SDS011;1025;42.686;23.350;2022-09-09T12:40:18;4.27;;;4.00;;
2039;SDS011;1025;42.686;23.350;2022-09-09T12:42:45;4.83;;;4.50;;
2039;SDS011;1025;42.686;23.350;2022-09-09T12:45:15;4.20;;;4.00;;
2039;SDS011;1025;42.686;23.350;2022-09-09T12:47:43;6.90;;;6.00;;
2039;SDS011;1025;42.686;23.350;2022-09-09T12:50:21;4.53;;;4.20;;
2039;SDS011;1025;42.686;23.350;2022-09-09T12:52:49;4.00;;;3.57;;
2039;SDS011;1025;42.686;23.350;2022-09-09T12:55:18;3.40;;;3.20;;
2039;SDS011;1025;42.686;23.350;2022-09-09T12:57:46;4.70;;;4.40;;
2039;SDS011;1025;42.686;23.350;2022-09-09T13:00:16;4.47;;;4.13;;
2039;SDS011;1025;42.686;23.350;2022-09-09T13:02:48;3.70;;;3.50;;
2039;SDS011;1025;42.686;23.350;2022-09-09T13:05:16;3.43;;;3.23;;
2039;SDS011;1025;42.686;23.350;2022-09-09T13:07:43;4.07;;;3.87;;
2039;SDS011;1025;42.686;23.350;2022-09-09T13:10:12;4.30;;;4.00;;
2039;SDS011;1025;42.686;23.350;2022-09-09T13:12:39;4.60;;;4.30;;
2039;SDS011;1025;42.686;23.350;2022-09-09T13:15:10;3.60;;;3.50;;
2039;SDS011;1025;42.686;23.350;2022-09-09T13:17:38;4.60;;;4.37;;
2039;SDS011;1025;42.686;23.350;2022-09-09T13:20:06;3.90;;;3.63;;
2039;SDS011;1025;42.686;23.350;2022-09-09T13:22:34;3.87;;;3.57;;
2039;SDS011;1025;42.686;23.350;2022-09-09T13:25:02;3.83;;;3.63;;
2039;SDS011;1025;42.686;23.350;2022-09-09T13:27:31;3.60;;;3.50;;
2039;SDS011;1025;42.686;23.350;2022-09-09T13:29:58;5.17;;;4.73;;
2039;SDS011;1025;42.686;23.350;2022-09-09T13:32:26;4.43;;;4.13;;
2039;SDS011;1025;42.686;23.350;2022-09-09T13:34:53;3.90;;;3.60;;
2039;SDS011;1025;42.686;23.350;2022-09-09T13:37:22;2.90;;;2.80;;
2039;SDS011;1025;42.686;23.350;2022-09-09T13:39:51;3.87;;;3.57;;
2039;SDS011;1025;42.686;23.350;2022-09-09T13:42:22;4.30;;;4.00;;
2039;SDS011;1025;42.686;23.350;2022-09-09T13:44:51;5.23;;;4.40;;
2039;SDS011;1025;42.686;23.350;2022-09-09T13:47:19;3.80;;;3.70;;
2039;SDS011;1025;42.686;23.350;2022-09-09T13:49:46;4.07;;;3.87;;
2039;SDS011;1025;42.686;23.350;2022-09-09T13:52:13;3.00;;;2.90;;
2039;SDS011;1025;42.686;23.350;2022-09-09T13:54:40;4.60;;;4.00;;
2039;SDS011;1025;42.686;23.350;2022-09-09T13:57:13;4.13;;;3.83;;
2039;SDS011;1025;42.686;23.350;2022-09-09T13:59:40;5.67;;;5.17;;
2039;SDS011;1025;42.686;23.350;2022-09-09T14:02:08;3.90;;;3.70;;
2039;SDS011;1025;42.686;23.350;2022-09-09T14:04:35;4.47;;;4.17;;
2039;SDS011;1025;42.686;23.350;2022-09-09T14:07:01;4.57;;;4.23;;
2039;SDS011;1025;42.686;23.350;2022-09-09T14:09:28;4.57;;;4.27;;
2039;SDS011;1025;42.686;23.350;2022-09-09T14:11:54;4.70;;;4.30;;
2039;SDS011;1025;42.686;23.350;2022-09-09T14:14:21;3.90;;;3.70;;
2039;SDS011;1025;42.686;23.350;2022-09-09T14:16:48;4.17;;;3.97;;
2039;SDS011;1025;42.686;23.350;2022-09-09T14:19:16;9.20;;;4.43;;
2039;SDS011;1025;42.686;23.350;2022-09-09T14:21:43;4.20;;;4.00;;
2039;SDS011;1025;42.686;23.350;2022-09-09T14:24:09;5.60;;;5.20;;
2039;SDS011;1025;42.686;23.350;2022-09-09T14:26:37;5.87;;;5.37;;
2039;SDS011;1025;42.686;23.350;2022-09-09T14:29:04;4.97;;;4.57;;
2039;SDS011;1025;42.686;23.350;2022-09-09T14:31:30;4.13;;;3.87;;
2039;SDS011;1025;42.686;23.350;2022-09-09T14:33:57;4.27;;;4.03;;
2039;SDS011;1025;42.686;23.350;2022-09-09T14:36:25;5.17;;;3.90;;
2039;SDS011;1025;42.686;23.350;2022-09-09T14:38:52;6.13;;;4.73;;
2039;SDS011;1025;42.686;23.350;2022-09-09T14:41:19;4.60;;;4.30;;
2039;SDS011;1025;42.686;23.350;2022-09-09T14:43:47;4.47;;;4.17;;
2039;SDS011;1025;42.686;23.350;2022-09-09T14:46:15;4.47;;;4.27;;
2039;SDS011;1025;42.686;23.350;2022-09-09T14:48:41;4.47;;;4.17;;
2039;SDS011;1025;42.686;23.350;2022-09-09T14:51:10;3.77;;;3.53;;
2039;SDS011;1025;42.686;23.350;2022-09-09T14:53:39;5.43;;;5.03;;
2039;SDS011;1025;42.686;23.350;2022-09-09T14:56:06;3.80;;;3.60;;
2039;SDS011;1025;42.686;23.350;2022-09-09T14:58:33;4.20;;;3.87;;
2039;SDS011;1025;42.686;23.350;2022-09-09T15:01:04;4.63;;;4.33;;
2039;SDS011;1025;42.686;23.350;2022-09-09T15:03:30;5.13;;;4.33;;
2039;SDS011;1025;42.686;23.350;2022-09-09T15:05:57;3.50;;;3.20;;
2039;SDS011;1025;42.686;23.350;2022-09-09T15:08:24;3.30;;;3.10;;
2039;SDS011;1025;42.686;23.350;2022-09-09T15:10:57;4.57;;;4.33;;
2039;SDS011;1025;42.686;23.350;2022-09-09T15:13:24;6.10;;;5.70;;